sensor_id;sensor_type;location;lat;lon;timestamp;temperature;humidity
21031;DHT22;61072;47.808;7.636;2023-02-28T00:00:37;2.10;99.90
21031;DHT22;61072;47.808;7.636;2023-02-28T00:03:05;2.00;99.90
21031;DHT22;61072;47.808;7.636;2023-02-28T00:05:32;2.00;99.90
21031;DHT22;61072;47.808;7.636;2023-02-28T00:07:59;2.00;99.90
21031;DHT22;61072;47.808;7.636;2023-02-28T00:10:28;1.80;99.90
21031;DHT22;61072;47.808;7.636;2023-02-28T00:13:00;1.80;99.90
21031;DHT22;61072;47.808;7.636;2023-02-28T00:15:28;1.80;99.90
21031;DHT22;61072;47.808;7.636;2023-02-28T00:17:54;1.70;99.90
21031;DHT22;61072;47.808;7.636;2023-02-28T00:20:21;1.70;99.90
21031;DHT22;61072;47.808;7.636;2023-02-28T00:22:50;1.70;99.90
21031;DHT22;61072;47.808;7.636;2023-02-28T00:25:20;1.70;99.90
21031;DHT22;61072;47.808;7.636;2023-02-28T00:27:47;1.70;99.90
21031;DHT22;61072;47.808;7.636;2023-02-28T00:30:17;1.70;99.90
21031;DHT22;61072;47.808;7.636;2023-02-28T00:32:44;1.70;99.90
21031;DHT22;61072;47.808;7.636;2023-02-28T00:35:12;1.70;99.90
21031;DHT22;61072;47.808;7.636;2023-02-28T00:37:39;1.70;99.90
21031;DHT22;61072;47.808;7.636;2023-02-28T00:40:07;1.70;99.90
21031;DHT22;61072;47.808;7.636;2023-02-28T00:42:34;1.70;99.90
21031;DHT22;61072;47.808;7.636;2023-02-28T00:45:02;1.60;99.90
21031;DHT22;61072;47.808;7.636;2023-02-28T00:47:31;1.60;99.90
21031;DHT22;61072;47.808;7.636;2023-02-28T00:49:58;1.50;99.90
21031;DHT22;61072;47.808;7.636;2023-02-28T00:52:25;1.50;99.90
21031;DHT22;61072;47.808;7.636;2023-02-28T00:54:52;1.40;99.90
21031;DHT22;61072;47.808;7.636;2023-02-28T00:57:18;1.40;99.90
21031;DHT22;61072;47.808;7.636;2023-02-28T00:59:45;1.40;99.90
21031;DHT22;61072;47.808;7.636;2023-02-28T01:02:12;1.40;99.90
21031;DHT22;61072;47.808;7.636;2023-02-28T01:04:38;1.30;99.90
21031;DHT22;61072;47.808;7.636;2023-02-28T01:07:05;1.30;99.90
21031;DHT22;61072;47.808;7.636;2023-02-28T01:09:32;1.30;99.90
21031;DHT22;61072;47.808;7.636;2023-02-28T01:11:59;1.30;99.90
21031;DHT22;61072;47.808;7.636;2023-02-28T01:14:25;1.30;99.90
21031;DHT22;61072;47.808;7.636;2023-02-28T01:16:52;1.20;99.90
21031;DHT22;61072;47.808;7.636;2023-02-28T01:19:19;1.30;99.90
21031;DHT22;61072;47.808;7.636;2023-02-28T01:21:45;1.30;99.90
21031;DHT22;61072;47.808;7.636;2023-02-28T01:24:12;1.30;99.90
21031;DHT22;61072;47.808;7.636;2023-02-28T01:26:39;1.40;99.90
21031;DHT22;61072;47.808;7.636;2023-02-28T01:29:05;1.40;99.90
21031;DHT22;61072;47.808;7.636;2023-02-28T01:31:32;1.50;99.90
21031;DHT22;61072;47.808;7.636;2023-02-28T01:33:59;1.40;99.90
21031;DHT22;61072;47.808;7.636;2023-02-28T01:36:26;1.40;99.90
21031;DHT22;61072;47.808;7.636;2023-02-28T01:38:53;1.40;99.90
21031;DHT22;61072;47.808;7.636;2023-02-28T01:41:23;1.40;99.90
21031;DHT22;61072;47.808;7.636;2023-02-28T01:43:59;1.40;99.90
21031;DHT22;61072;47.808;7.636;2023-02-28T01:46:34;1.40;99.90
21031;DHT22;61072;47.808;7.636;2023-02-28T01:49:11;1.40;99.90
21031;DHT22;61072;47.808;7.636;2023-02-28T01:51:45;1.40;99.90
21031;DHT22;61072;47.808;7.636;2023-02-28T01:54:23;1.40;99.90
21031;DHT22;61072;47.808;7.636;2023-02-28T01:57:00;1.40;99.90
21031;DHT22;61072;47.808;7.636;2023-02-28T01:59:45;1.40;99.90
21031;DHT22;61072;47.808;7.636;2023-02-28T02:02:17;1.40;99.90
21031;DHT22;61072;47.808;7.636;2023-02-28T02:05:00;1.50;99.90
21031;DHT22;61072;47.808;7.636;2023-02-28T02:07:35;1.50;99.90
21031;DHT22;61072;47.808;7.636;2023-02-28T02:10:15;1.50;99.90
21031;DHT22;61072;47.808;7.636;2023-02-28T02:18:26;1.60;99.90
21031;DHT22;61072;47.808;7.636;2023-02-28T02:23:45;1.70;99.90
21031;DHT22;61072;47.808;7.636;2023-02-28T02:31:53;1.70;99.90
21031;DHT22;61072;47.808;7.636;2023-02-28T02:43:03;1.60;99.90
21031;DHT22;61072;47.808;7.636;2023-02-28T02:45:49;1.60;99.90
21031;DHT22;61072;47.808;7.636;2023-02-28T02:48:20;1.50;99.90
21031;DHT22;61072;47.808;7.636;2023-02-28T02:51:00;1.50;99.90
21031;DHT22;61072;47.808;7.636;2023-02-28T02:53:35;1.50;99.90
21031;DHT22;61072;47.808;7.636;2023-02-28T02:56:03;1.40;99.90
21031;DHT22;61072;47.808;7.636;2023-02-28T02:58:37;1.40;99.90
21031;DHT22;61072;47.808;7.636;2023-02-28T03:01:12;1.40;99.90
21031;DHT22;61072;47.808;7.636;2023-02-28T03:03:41;1.40;99.90
21031;DHT22;61072;47.808;7.636;2023-02-28T03:06:08;1.40;99.90
21031;DHT22;61072;47.808;7.636;2023-02-28T03:08:38;1.40;99.90
21031;DHT22;61072;47.808;7.636;2023-02-28T03:11:10;1.40;99.90
21031;DHT22;61072;47.808;7.636;2023-02-28T03:19:37;1.50;99.90
21031;DHT22;61072;47.808;7.636;2023-02-28T03:24:57;1.40;99.90
21031;DHT22;61072;47.808;7.636;2023-02-28T03:27:39;1.40;99.90
21031;DHT22;61072;47.808;7.636;2023-02-28T03:33:09;1.20;99.90
21031;DHT22;61072;47.808;7.636;2023-02-28T03:35:42;1.20;99.90
21031;DHT22;61072;47.808;7.636;2023-02-28T03:38:23;1.20;99.90
21031;DHT22;61072;47.808;7.636;2023-02-28T03:41:01;1.10;99.90
21031;DHT22;61072;47.808;7.636;2023-02-28T03:43:34;1.10;99.90
21031;DHT22;61072;47.808;7.636;2023-02-28T03:46:06;1.10;99.90
21031;DHT22;61072;47.808;7.636;2023-02-28T03:48:43;1.10;99.90
21031;DHT22;61072;47.808;7.636;2023-02-28T03:51:14;1.00;99.90
21031;DHT22;61072;47.808;7.636;2023-02-28T03:53:46;0.90;99.90
21031;DHT22;61072;47.808;7.636;2023-02-28T03:56:30;0.90;99.90
21031;DHT22;61072;47.808;7.636;2023-02-28T03:59:01;0.80;99.90
21031;DHT22;61072;47.808;7.636;2023-02-28T04:01:38;0.80;99.90
21031;DHT22;61072;47.808;7.636;2023-02-28T04:04:08;0.70;99.90
21031;DHT22;61072;47.808;7.636;2023-02-28T04:06:36;0.70;99.90
21031;DHT22;61072;47.808;7.636;2023-02-28T04:09:04;0.50;99.90
21031;DHT22;61072;47.808;7.636;2023-02-28T04:11:36;0.40;99.90
21031;DHT22;61072;47.808;7.636;2023-02-28T04:14:05;0.40;99.90
21031;DHT22;61072;47.808;7.636;2023-02-28T04:16:33;0.40;99.90
21031;DHT22;61072;47.808;7.636;2023-02-28T04:19:04;0.30;99.90
21031;DHT22;61072;47.808;7.636;2023-02-28T04:23:59;0.20;99.90
21031;DHT22;61072;47.808;7.636;2023-02-28T04:26:31;0.20;99.90
21031;DHT22;61072;47.808;7.636;2023-02-28T04:28:59;0.30;99.90
21031;DHT22;61072;47.808;7.636;2023-02-28T04:31:26;0.30;99.90
21031;DHT22;61072;47.808;7.636;2023-02-28T04:33:53;0.30;99.90
21031;DHT22;61072;47.808;7.636;2023-02-28T04:36:19;0.30;99.90
21031;DHT22;61072;47.808;7.636;2023-02-28T04:38:46;0.30;99.90
21031;DHT22;61072;47.808;7.636;2023-02-28T04:41:13;0.20;99.90
21031;DHT22;61072;47.808;7.636;2023-02-28T04:43:40;0.30;99.90
21031;DHT22;61072;47.808;7.636;2023-02-28T04:46:07;0.30;99.90
21031;DHT22;61072;47.808;7.636;2023-02-28T04:48:36;0.40;99.90
21031;DHT22;61072;47.808;7.636;2023-02-28T04:51:09;0.40;99.90
21031;DHT22;61072;47.808;7.636;2023-02-28T04:53:38;0.40;99.90
21031;DHT22;61072;47.808;7.636;2023-02-28T04:56:06;0.40;99.90
21031;DHT22;61072;47.808;7.636;2023-02-28T04:58:34;0.40;99.90
21031;DHT22;61072;47.808;7.636;2023-02-28T05:01:03;0.40;99.90
21031;DHT22;61072;47.808;7.636;2023-02-28T05:03:30;0.50;99.90
21031;DHT22;61072;47.808;7.636;2023-02-28T05:05:57;0.50;99.90
21031;DHT22;61072;47.808;7.636;2023-02-28T05:08:23;0.50;99.90
21031;DHT22;61072;47.808;7.636;2023-02-28T05:10:51;0.50;99.90
21031;DHT22;61072;47.808;7.636;2023-02-28T05:13:18;0.50;99.90
21031;DHT22;61072;47.808;7.636;2023-02-28T05:15:44;0.60;99.90
21031;DHT22;61072;47.808;7.636;2023-02-28T05:18:11;0.60;99.90
21031;DHT22;61072;47.808;7.636;2023-02-28T05:20:38;0.60;99.90
21031;DHT22;61072;47.808;7.636;2023-02-28T05:23:05;0.70;99.90
21031;DHT22;61072;47.808;7.636;2023-02-28T05:25:31;0.70;99.90
21031;DHT22;61072;47.808;7.636;2023-02-28T05:27:58;0.70;99.90
21031;DHT22;61072;47.808;7.636;2023-02-28T05:30:25;0.70;99.90
21031;DHT22;61072;47.808;7.636;2023-02-28T05:32:52;0.60;99.90
21031;DHT22;61072;47.808;7.636;2023-02-28T05:35:18;0.50;99.90
21031;DHT22;61072;47.808;7.636;2023-02-28T05:37:45;0.50;99.90
21031;DHT22;61072;47.808;7.636;2023-02-28T05:40:12;0.40;99.90
21031;DHT22;61072;47.808;7.636;2023-02-28T05:42:39;0.40;99.90
21031;DHT22;61072;47.808;7.636;2023-02-28T05:45:06;0.30;99.90
21031;DHT22;61072;47.808;7.636;2023-02-28T05:47:33;0.40;99.90
21031;DHT22;61072;47.808;7.636;2023-02-28T05:50:00;0.40;99.90
21031;DHT22;61072;47.808;7.636;2023-02-28T05:52:28;0.30;99.90
21031;DHT22;61072;47.808;7.636;2023-02-28T05:54:56;0.40;99.90
21031;DHT22;61072;47.808;7.636;2023-02-28T05:57:23;0.40;99.90
21031;DHT22;61072;47.808;7.636;2023-02-28T05:59:50;0.40;99.90
21031;DHT22;61072;47.808;7.636;2023-02-28T06:02:17;0.40;99.90
21031;DHT22;61072;47.808;7.636;2023-02-28T06:04:44;0.40;99.90
21031;DHT22;61072;47.808;7.636;2023-02-28T06:07:12;0.40;99.90
21031;DHT22;61072;47.808;7.636;2023-02-28T06:09:38;0.40;99.90
21031;DHT22;61072;47.808;7.636;2023-02-28T06:12:06;0.30;99.90
21031;DHT22;61072;47.808;7.636;2023-02-28T06:14:34;0.30;99.90
21031;DHT22;61072;47.808;7.636;2023-02-28T06:17:01;0.30;99.90
21031;DHT22;61072;47.808;7.636;2023-02-28T06:19:28;0.30;99.90
21031;DHT22;61072;47.808;7.636;2023-02-28T06:21:57;0.30;99.90
21031;DHT22;61072;47.808;7.636;2023-02-28T06:24:24;0.30;99.90
21031;DHT22;61072;47.808;7.636;2023-02-28T06:26:54;0.30;99.90
21031;DHT22;61072;47.808;7.636;2023-02-28T06:29:21;0.30;99.90
21031;DHT22;61072;47.808;7.636;2023-02-28T06:31:48;0.30;99.90
21031;DHT22;61072;47.808;7.636;2023-02-28T06:34:15;0.30;99.90
21031;DHT22;61072;47.808;7.636;2023-02-28T06:36:42;0.40;99.90
21031;DHT22;61072;47.808;7.636;2023-02-28T06:39:09;0.40;99.90
21031;DHT22;61072;47.808;7.636;2023-02-28T06:41:36;0.30;99.90
21031;DHT22;61072;47.808;7.636;2023-02-28T06:44:21;0.30;99.90
21031;DHT22;61072;47.808;7.636;2023-02-28T06:46:48;0.40;99.90
21031;DHT22;61072;47.808;7.636;2023-02-28T06:49:15;0.40;99.90
21031;DHT22;61072;47.808;7.636;2023-02-28T06:51:43;0.40;99.90
21031;DHT22;61072;47.808;7.636;2023-02-28T06:54:13;0.50;99.90
21031;DHT22;61072;47.808;7.636;2023-02-28T06:56:40;0.50;99.90
21031;DHT22;61072;47.808;7.636;2023-02-28T06:59:07;0.50;99.90
21031;DHT22;61072;47.808;7.636;2023-02-28T07:01:33;0.50;99.90
21031;DHT22;61072;47.808;7.636;2023-02-28T07:04:01;0.60;99.90
21031;DHT22;61072;47.808;7.636;2023-02-28T07:06:27;0.60;99.90
21031;DHT22;61072;47.808;7.636;2023-02-28T07:08:54;0.60;99.90
21031;DHT22;61072;47.808;7.636;2023-02-28T07:11:23;0.60;99.90
21031;DHT22;61072;47.808;7.636;2023-02-28T07:13:55;0.70;99.90
21031;DHT22;61072;47.808;7.636;2023-02-28T07:16:23;0.70;99.90
21031;DHT22;61072;47.808;7.636;2023-02-28T07:18:53;0.70;99.90
21031;DHT22;61072;47.808;7.636;2023-02-28T07:21:20;0.70;99.90
21031;DHT22;61072;47.808;7.636;2023-02-28T07:23:47;0.70;99.90
21031;DHT22;61072;47.808;7.636;2023-02-28T07:26:16;0.60;99.90
21031;DHT22;61072;47.808;7.636;2023-02-28T07:28:44;0.60;99.90
21031;DHT22;61072;47.808;7.636;2023-02-28T07:31:12;0.60;99.90
21031;DHT22;61072;47.808;7.636;2023-02-28T07:33:40;0.60;99.90
21031;DHT22;61072;47.808;7.636;2023-02-28T07:36:12;0.60;99.90
21031;DHT22;61072;47.808;7.636;2023-02-28T07:38:43;0.50;99.90
21031;DHT22;61072;47.808;7.636;2023-02-28T07:41:15;0.50;99.90
21031;DHT22;61072;47.808;7.636;2023-02-28T07:43:42;0.40;99.90
21031;DHT22;61072;47.808;7.636;2023-02-28T07:46:10;0.40;99.90
21031;DHT22;61072;47.808;7.636;2023-02-28T07:48:38;0.40;99.90
21031;DHT22;61072;47.808;7.636;2023-02-28T07:51:05;0.30;99.90
21031;DHT22;61072;47.808;7.636;2023-02-28T07:53:31;0.40;99.90
21031;DHT22;61072;47.808;7.636;2023-02-28T07:55:59;0.30;99.90
21031;DHT22;61072;47.808;7.636;2023-02-28T07:58:28;0.30;99.90
21031;DHT22;61072;47.808;7.636;2023-02-28T08:00:55;0.40;99.90
21031;DHT22;61072;47.808;7.636;2023-02-28T08:03:23;0.40;99.90
21031;DHT22;61072;47.808;7.636;2023-02-28T08:05:50;0.40;99.90
21031;DHT22;61072;47.808;7.636;2023-02-28T08:08:18;0.50;99.90
21031;DHT22;61072;47.808;7.636;2023-02-28T08:10:45;0.50;99.90
21031;DHT22;61072;47.808;7.636;2023-02-28T08:13:12;0.60;99.90
21031;DHT22;61072;47.808;7.636;2023-02-28T08:15:41;0.70;99.90
21031;DHT22;61072;47.808;7.636;2023-02-28T08:18:08;0.70;99.90
21031;DHT22;61072;47.808;7.636;2023-02-28T08:20:35;0.70;99.90
21031;DHT22;61072;47.808;7.636;2023-02-28T08:23:02;0.70;99.90
21031;DHT22;61072;47.808;7.636;2023-02-28T08:25:28;0.80;99.90
21031;DHT22;61072;47.808;7.636;2023-02-28T08:27:55;0.80;99.90
21031;DHT22;61072;47.808;7.636;2023-02-28T08:30:22;0.90;99.90
21031;DHT22;61072;47.808;7.636;2023-02-28T08:32:49;1.00;99.90
21031;DHT22;61072;47.808;7.636;2023-02-28T08:35:16;1.00;99.90
21031;DHT22;61072;47.808;7.636;2023-02-28T08:37:42;1.00;99.90
21031;DHT22;61072;47.808;7.636;2023-02-28T08:40:09;1.10;99.90
21031;DHT22;61072;47.808;7.636;2023-02-28T08:42:36;1.20;99.90
21031;DHT22;61072;47.808;7.636;2023-02-28T08:45:03;1.20;99.90
21031;DHT22;61072;47.808;7.636;2023-02-28T08:47:30;1.30;99.90
21031;DHT22;61072;47.808;7.636;2023-02-28T08:49:57;1.30;99.90
21031;DHT22;61072;47.808;7.636;2023-02-28T08:52:24;1.40;99.90
21031;DHT22;61072;47.808;7.636;2023-02-28T08:54:50;1.40;99.90
21031;DHT22;61072;47.808;7.636;2023-02-28T08:57:17;1.50;99.90
21031;DHT22;61072;47.808;7.636;2023-02-28T08:59:44;1.60;99.90
21031;DHT22;61072;47.808;7.636;2023-02-28T09:02:13;1.60;99.90
21031;DHT22;61072;47.808;7.636;2023-02-28T09:04:40;1.70;99.90
21031;DHT22;61072;47.808;7.636;2023-02-28T09:07:07;1.70;99.90
21031;DHT22;61072;47.808;7.636;2023-02-28T09:09:34;1.90;99.90
21031;DHT22;61072;47.808;7.636;2023-02-28T09:12:02;2.00;99.90
21031;DHT22;61072;47.808;7.636;2023-02-28T09:14:29;2.10;99.90
21031;DHT22;61072;47.808;7.636;2023-02-28T09:16:55;2.10;99.90
21031;DHT22;61072;47.808;7.636;2023-02-28T09:19:22;2.20;99.90
21031;DHT22;61072;47.808;7.636;2023-02-28T09:21:49;2.20;99.90
21031;DHT22;61072;47.808;7.636;2023-02-28T09:24:16;2.20;99.90
21031;DHT22;61072;47.808;7.636;2023-02-28T09:26:43;2.30;99.90
21031;DHT22;61072;47.808;7.636;2023-02-28T09:29:29;2.40;99.90
21031;DHT22;61072;47.808;7.636;2023-02-28T09:31:55;2.50;99.90
21031;DHT22;61072;47.808;7.636;2023-02-28T09:34:26;2.50;99.90
21031;DHT22;61072;47.808;7.636;2023-02-28T09:36:53;2.60;99.90
21031;DHT22;61072;47.808;7.636;2023-02-28T09:39:23;2.60;99.90
21031;DHT22;61072;47.808;7.636;2023-02-28T09:41:51;2.70;99.90
21031;DHT22;61072;47.808;7.636;2023-02-28T09:47:10;2.70;99.90
21031;DHT22;61072;47.808;7.636;2023-02-28T09:49:42;2.80;99.90
21031;DHT22;61072;47.808;7.636;2023-02-28T09:52:16;3.00;99.90
21031;DHT22;61072;47.808;7.636;2023-02-28T09:54:43;3.10;99.90
21031;DHT22;61072;47.808;7.636;2023-02-28T09:57:32;3.20;99.90
21031;DHT22;61072;47.808;7.636;2023-02-28T10:00:30;3.30;99.90
21031;DHT22;61072;47.808;7.636;2023-02-28T10:05:35;3.20;99.90
21031;DHT22;61072;47.808;7.636;2023-02-28T10:08:22;3.20;99.90
21031;DHT22;61072;47.808;7.636;2023-02-28T10:10:55;3.20;99.90
21031;DHT22;61072;47.808;7.636;2023-02-28T10:16:02;3.10;99.90
21031;DHT22;61072;47.808;7.636;2023-02-28T10:18:52;3.20;99.90
21031;DHT22;61072;47.808;7.636;2023-02-28T10:21:42;3.30;99.90
21031;DHT22;61072;47.808;7.636;2023-02-28T10:24:29;3.40;99.90
21031;DHT22;61072;47.808;7.636;2023-02-28T10:27:12;3.40;99.90
21031;DHT22;61072;47.808;7.636;2023-02-28T10:29:43;3.40;99.90
21031;DHT22;61072;47.808;7.636;2023-02-28T10:32:14;3.50;99.90
21031;DHT22;61072;47.808;7.636;2023-02-28T10:34:41;3.50;99.90
21031;DHT22;61072;47.808;7.636;2023-02-28T10:37:10;3.60;99.90
21031;DHT22;61072;47.808;7.636;2023-02-28T10:44:46;3.80;99.90
21031;DHT22;61072;47.808;7.636;2023-02-28T10:47:17;3.90;99.90
21031;DHT22;61072;47.808;7.636;2023-02-28T10:49:48;4.00;99.90
21031;DHT22;61072;47.808;7.636;2023-02-28T10:52:33;3.90;99.90
21031;DHT22;61072;47.808;7.636;2023-02-28T10:55:35;4.00;99.90
21031;DHT22;61072;47.808;7.636;2023-02-28T10:58:02;4.10;99.90
21031;DHT22;61072;47.808;7.636;2023-02-28T11:00:34;4.20;99.90
21031;DHT22;61072;47.808;7.636;2023-02-28T11:03:01;4.20;99.90
21031;DHT22;61072;47.808;7.636;2023-02-28T11:05:33;4.40;99.90
21031;DHT22;61072;47.808;7.636;2023-02-28T11:08:18;4.40;99.90
21031;DHT22;61072;47.808;7.636;2023-02-28T11:10:58;4.50;99.90
21031;DHT22;61072;47.808;7.636;2023-02-28T11:13:35;4.60;99.90
21031;DHT22;61072;47.808;7.636;2023-02-28T11:16:07;4.70;99.90
21031;DHT22;61072;47.808;7.636;2023-02-28T11:18:42;4.80;99.90
21031;DHT22;61072;47.808;7.636;2023-02-28T11:21:16;4.80;99.90
21031;DHT22;61072;47.808;7.636;2023-02-28T11:23:44;4.80;99.90
21031;DHT22;61072;47.808;7.636;2023-02-28T11:26:34;4.80;99.90
21031;DHT22;61072;47.808;7.636;2023-02-28T11:29:28;5.00;99.90
21031;DHT22;61072;47.808;7.636;2023-02-28T11:34:40;5.10;99.90
21031;DHT22;61072;47.808;7.636;2023-02-28T11:37:18;5.10;99.90
21031;DHT22;61072;47.808;7.636;2023-02-28T11:39:46;5.20;99.90
21031;DHT22;61072;47.808;7.636;2023-02-28T11:42:36;5.30;99.90
21031;DHT22;61072;47.808;7.636;2023-02-28T11:48:22;5.40;99.90
21031;DHT22;61072;47.808;7.636;2023-02-28T11:51:18;5.30;99.90
21031;DHT22;61072;47.808;7.636;2023-02-28T11:53:50;5.40;99.90
21031;DHT22;61072;47.808;7.636;2023-02-28T12:17:03;5.50;99.90
21031;DHT22;61072;47.808;7.636;2023-02-28T12:19:45;5.50;99.90
21031;DHT22;61072;47.808;7.636;2023-02-28T12:27:38;5.20;99.90
21031;DHT22;61072;47.808;7.636;2023-02-28T12:30:16;5.10;99.90
21031;DHT22;61072;47.808;7.636;2023-02-28T12:33:10;5.10;99.90
21031;DHT22;61072;47.808;7.636;2023-02-28T12:35:38;5.10;99.90
21031;DHT22;61072;47.808;7.636;2023-02-28T12:38:15;5.00;99.90
21031;DHT22;61072;47.808;7.636;2023-02-28T12:40:51;4.90;99.90
21031;DHT22;61072;47.808;7.636;2023-02-28T12:43:24;4.90;99.90
21031;DHT22;61072;47.808;7.636;2023-02-28T12:45:57;5.00;99.90
21031;DHT22;61072;47.808;7.636;2023-02-28T12:48:40;5.10;99.90
21031;DHT22;61072;47.808;7.636;2023-02-28T12:51:10;5.20;99.90
21031;DHT22;61072;47.808;7.636;2023-02-28T12:56:33;5.20;99.90
21031;DHT22;61072;47.808;7.636;2023-02-28T13:09:52;5.00;99.90
21031;DHT22;61072;47.808;7.636;2023-02-28T13:12:19;4.90;99.90
21031;DHT22;61072;47.808;7.636;2023-02-28T13:14:47;4.90;99.90
21031;DHT22;61072;47.808;7.636;2023-02-28T13:17:21;4.80;99.90
21031;DHT22;61072;47.808;7.636;2023-02-28T13:22:38;4.80;99.90
21031;DHT22;61072;47.808;7.636;2023-02-28T13:28:02;4.80;99.90
21031;DHT22;61072;47.808;7.636;2023-02-28T13:35:46;4.80;99.90
21031;DHT22;61072;47.808;7.636;2023-02-28T13:38:22;4.90;99.90
21031;DHT22;61072;47.808;7.636;2023-02-28T13:40:49;4.70;99.90
21031;DHT22;61072;47.808;7.636;2023-02-28T13:43:17;4.70;99.90
21031;DHT22;61072;47.808;7.636;2023-02-28T13:46:22;4.60;99.90
21031;DHT22;61072;47.808;7.636;2023-02-28T13:48:49;4.60;99.90
21031;DHT22;61072;47.808;7.636;2023-02-28T13:51:38;4.40;99.90
21031;DHT22;61072;47.808;7.636;2023-02-28T13:54:39;4.50;99.90
21031;DHT22;61072;47.808;7.636;2023-02-28T14:03:15;4.60;99.90
21031;DHT22;61072;47.808;7.636;2023-02-28T14:05:45;4.60;99.90
21031;DHT22;61072;47.808;7.636;2023-02-28T14:08:19;4.60;99.90
21031;DHT22;61072;47.808;7.636;2023-02-28T14:10:49;4.60;99.90
21031;DHT22;61072;47.808;7.636;2023-02-28T14:13:42;4.60;99.90
21031;DHT22;61072;47.808;7.636;2023-02-28T14:16:24;4.50;99.90
21031;DHT22;61072;47.808;7.636;2023-02-28T14:19:00;4.50;99.90
21031;DHT22;61072;47.808;7.636;2023-02-28T14:21:31;4.50;99.90
21031;DHT22;61072;47.808;7.636;2023-02-28T14:31:58;4.50;99.90
21031;DHT22;61072;47.808;7.636;2023-02-28T14:37:03;4.70;99.90
21031;DHT22;61072;47.808;7.636;2023-02-28T14:39:31;4.80;99.90
21031;DHT22;61072;47.808;7.636;2023-02-28T14:41:59;4.70;99.90
21031;DHT22;61072;47.808;7.636;2023-02-28T14:44:31;4.80;99.90
21031;DHT22;61072;47.808;7.636;2023-02-28T14:47:02;4.70;99.90
21031;DHT22;61072;47.808;7.636;2023-02-28T14:49:43;4.70;99.90
21031;DHT22;61072;47.808;7.636;2023-02-28T14:52:23;4.70;99.90
21031;DHT22;61072;47.808;7.636;2023-02-28T14:55:04;4.70;99.90
21031;DHT22;61072;47.808;7.636;2023-02-28T14:57:39;4.60;99.90
21031;DHT22;61072;47.808;7.636;2023-02-28T15:02:39;4.60;99.90
21031;DHT22;61072;47.808;7.636;2023-02-28T15:07:39;4.60;99.90
21031;DHT22;61072;47.808;7.636;2023-02-28T15:10:24;4.50;99.90
21031;DHT22;61072;47.808;7.636;2023-02-28T15:13:05;4.50;99.90
21031;DHT22;61072;47.808;7.636;2023-02-28T15:15:56;4.60;99.90
21031;DHT22;61072;47.808;7.636;2023-02-28T15:18:50;4.50;99.90
21031;DHT22;61072;47.808;7.636;2023-02-28T15:21:21;4.40;99.90
21031;DHT22;61072;47.808;7.636;2023-02-28T15:26:29;4.20;99.90
21031;DHT22;61072;47.808;7.636;2023-02-28T15:29:05;4.30;99.90
21031;DHT22;61072;47.808;7.636;2023-02-28T15:31:35;4.30;99.90
21031;DHT22;61072;47.808;7.636;2023-02-28T15:39:53;4.20;99.90
21031;DHT22;61072;47.808;7.636;2023-02-28T15:42:22;4.10;99.90
21031;DHT22;61072;47.808;7.636;2023-02-28T15:44:49;4.10;99.90
21031;DHT22;61072;47.808;7.636;2023-02-28T15:47:24;4.00;99.90
21031;DHT22;61072;47.808;7.636;2023-02-28T15:50:00;4.10;99.90
21031;DHT22;61072;47.808;7.636;2023-02-28T15:55:15;4.10;99.90
21031;DHT22;61072;47.808;7.636;2023-02-28T15:57:44;4.10;99.90
21031;DHT22;61072;47.808;7.636;2023-02-28T16:00:18;4.10;99.90
21031;DHT22;61072;47.808;7.636;2023-02-28T16:02:45;4.10;99.90
21031;DHT22;61072;47.808;7.636;2023-02-28T16:05:30;4.10;99.90
21031;DHT22;61072;47.808;7.636;2023-02-28T16:08:00;4.10;99.90
21031;DHT22;61072;47.808;7.636;2023-02-28T16:10:28;4.10;99.90
21031;DHT22;61072;47.808;7.636;2023-02-28T16:12:56;4.10;99.90
21031;DHT22;61072;47.808;7.636;2023-02-28T16:15:28;4.10;99.90
21031;DHT22;61072;47.808;7.636;2023-02-28T16:17:56;4.20;99.90
21031;DHT22;61072;47.808;7.636;2023-02-28T16:20:29;4.10;99.90
21031;DHT22;61072;47.808;7.636;2023-02-28T16:22:57;4.10;99.90
21031;DHT22;61072;47.808;7.636;2023-02-28T16:25:34;4.00;99.90
21031;DHT22;61072;47.808;7.636;2023-02-28T16:28:01;4.00;99.90
21031;DHT22;61072;47.808;7.636;2023-02-28T16:30:29;3.90;99.90
21031;DHT22;61072;47.808;7.636;2023-02-28T16:32:59;4.00;99.90
21031;DHT22;61072;47.808;7.636;2023-02-28T16:35:25;4.10;99.90
21031;DHT22;61072;47.808;7.636;2023-02-28T16:37:52;4.10;99.90
21031;DHT22;61072;47.808;7.636;2023-02-28T16:40:22;4.10;99.90
21031;DHT22;61072;47.808;7.636;2023-02-28T16:42:52;4.20;99.90
21031;DHT22;61072;47.808;7.636;2023-02-28T16:45:25;4.10;99.90
21031;DHT22;61072;47.808;7.636;2023-02-28T16:47:53;4.10;99.90
21031;DHT22;61072;47.808;7.636;2023-02-28T16:50:23;4.20;99.90
21031;DHT22;61072;47.808;7.636;2023-02-28T16:52:51;4.20;99.90
21031;DHT22;61072;47.808;7.636;2023-02-28T16:55:25;4.20;99.90
21031;DHT22;61072;47.808;7.636;2023-02-28T16:57:54;4.20;99.90
21031;DHT22;61072;47.808;7.636;2023-02-28T17:00:22;4.20;99.90
21031;DHT22;61072;47.808;7.636;2023-02-28T17:02:49;4.20;99.90
21031;DHT22;61072;47.808;7.636;2023-02-28T17:05:17;4.20;99.90
21031;DHT22;61072;47.808;7.636;2023-02-28T17:07:45;4.20;99.90
21031;DHT22;61072;47.808;7.636;2023-02-28T17:10:22;4.20;99.90
21031;DHT22;61072;47.808;7.636;2023-02-28T17:12:49;4.20;99.90
21031;DHT22;61072;47.808;7.636;2023-02-28T17:15:19;4.10;99.90
21031;DHT22;61072;47.808;7.636;2023-02-28T17:17:47;4.10;99.90
21031;DHT22;61072;47.808;7.636;2023-02-28T17:20:17;4.00;99.90
21031;DHT22;61072;47.808;7.636;2023-02-28T17:22:44;4.00;99.90
21031;DHT22;61072;47.808;7.636;2023-02-28T17:25:11;3.90;99.90
21031;DHT22;61072;47.808;7.636;2023-02-28T17:27:38;3.90;99.90
21031;DHT22;61072;47.808;7.636;2023-02-28T17:32:43;3.70;99.90
21031;DHT22;61072;47.808;7.636;2023-02-28T17:35:10;3.70;99.90
21031;DHT22;61072;47.808;7.636;2023-02-28T17:37:37;3.60;99.90
21031;DHT22;61072;47.808;7.636;2023-02-28T17:40:04;3.60;99.90
21031;DHT22;61072;47.808;7.636;2023-02-28T17:42:31;3.50;99.90
21031;DHT22;61072;47.808;7.636;2023-02-28T17:44:58;3.50;99.90
21031;DHT22;61072;47.808;7.636;2023-02-28T17:47:24;3.40;99.90
21031;DHT22;61072;47.808;7.636;2023-02-28T17:49:51;3.30;99.90
21031;DHT22;61072;47.808;7.636;2023-02-28T17:52:18;3.30;99.90
21031;DHT22;61072;47.808;7.636;2023-02-28T17:54:44;3.30;99.90
21031;DHT22;61072;47.808;7.636;2023-02-28T17:57:14;3.20;99.90
21031;DHT22;61072;47.808;7.636;2023-02-28T17:59:42;3.20;99.90
21031;DHT22;61072;47.808;7.636;2023-02-28T18:02:12;3.10;99.90
21031;DHT22;61072;47.808;7.636;2023-02-28T18:04:39;3.00;99.90
21031;DHT22;61072;47.808;7.636;2023-02-28T18:07:06;3.00;99.90
21031;DHT22;61072;47.808;7.636;2023-02-28T18:09:35;3.00;99.90
21031;DHT22;61072;47.808;7.636;2023-02-28T18:12:02;3.00;99.90
21031;DHT22;61072;47.808;7.636;2023-02-28T18:14:29;2.90;99.90
21031;DHT22;61072;47.808;7.636;2023-02-28T18:16:56;2.90;99.90
21031;DHT22;61072;47.808;7.636;2023-02-28T18:19:23;2.90;99.90
21031;DHT22;61072;47.808;7.636;2023-02-28T18:21:51;2.80;99.90
21031;DHT22;61072;47.808;7.636;2023-02-28T18:24:20;2.80;99.90
21031;DHT22;61072;47.808;7.636;2023-02-28T18:26:48;2.70;99.90
21031;DHT22;61072;47.808;7.636;2023-02-28T18:29:23;2.70;99.90